sensor_id;sensor_type;location;lat;lon;timestamp;temperature;humidity
42421;DHT22;28063;48.140;11.588;2023-02-01T00:01:09;4.40;90.50
42421;DHT22;28063;48.140;11.588;2023-02-01T00:03:35;4.30;90.60
42421;DHT22;28063;48.140;11.588;2023-02-01T00:06:00;4.30;90.60
42421;DHT22;28063;48.140;11.588;2023-02-01T00:08:26;4.40;90.60
42421;DHT22;28063;48.140;11.588;2023-02-01T00:10:59;4.40;90.30
42421;DHT22;28063;48.140;11.588;2023-02-01T00:13:28;4.40;90.40
42421;DHT22;28063;48.140;11.588;2023-02-01T00:15:54;4.40;90.40
42421;DHT22;28063;48.140;11.588;2023-02-01T00:18:20;4.40;90.50
42421;DHT22;28063;48.140;11.588;2023-02-01T00:20:46;4.40;90.20
42421;DHT22;28063;48.140;11.588;2023-02-01T00:23:12;4.50;90.20
42421;DHT22;28063;48.140;11.588;2023-02-01T00:25:37;4.40;90.10
42421;DHT22;28063;48.140;11.588;2023-02-01T00:28:03;4.40;90.00
42421;DHT22;28063;48.140;11.588;2023-02-01T00:30:28;4.50;90.10
42421;DHT22;28063;48.140;11.588;2023-02-01T00:32:54;4.50;90.00
42421;DHT22;28063;48.140;11.588;2023-02-01T00:35:19;4.50;90.00
42421;DHT22;28063;48.140;11.588;2023-02-01T00:37:45;4.60;90.00
42421;DHT22;28063;48.140;11.588;2023-02-01T00:40:10;4.60;90.00
42421;DHT22;28063;48.140;11.588;2023-02-01T00:42:36;4.60;90.10
42421;DHT22;28063;48.140;11.588;2023-02-01T00:45:01;4.70;90.30
42421;DHT22;28063;48.140;11.588;2023-02-01T00:47:27;4.60;90.70
42421;DHT22;28063;48.140;11.588;2023-02-01T00:49:52;4.60;91.00
42421;DHT22;28063;48.140;11.588;2023-02-01T00:52:18;4.40;91.70
42421;DHT22;28063;48.140;11.588;2023-02-01T00:54:43;4.40;91.90
42421;DHT22;28063;48.140;11.588;2023-02-01T00:57:09;4.30;92.40
42421;DHT22;28063;48.140;11.588;2023-02-01T00:59:34;4.20;92.70
42421;DHT22;28063;48.140;11.588;2023-02-01T01:02:00;4.20;93.20
42421;DHT22;28063;48.140;11.588;2023-02-01T01:04:25;4.10;93.60
42421;DHT22;28063;48.140;11.588;2023-02-01T01:06:51;4.10;94.00
42421;DHT22;28063;48.140;11.588;2023-02-01T01:09:16;3.90;94.40
42421;DHT22;28063;48.140;11.588;2023-02-01T01:11:42;3.80;94.80
42421;DHT22;28063;48.140;11.588;2023-02-01T01:14:08;3.70;95.20
42421;DHT22;28063;48.140;11.588;2023-02-01T01:16:33;3.70;95.60
42421;DHT22;28063;48.140;11.588;2023-02-01T01:18:59;3.70;95.80
42421;DHT22;28063;48.140;11.588;2023-02-01T01:21:25;3.60;96.20
42421;DHT22;28063;48.140;11.588;2023-02-01T01:23:51;3.60;96.40
42421;DHT22;28063;48.140;11.588;2023-02-01T01:26:18;3.70;96.80
42421;DHT22;28063;48.140;11.588;2023-02-01T01:28:44;3.70;96.50
42421;DHT22;28063;48.140;11.588;2023-02-01T01:31:10;3.70;96.60
42421;DHT22;28063;48.140;11.588;2023-02-01T01:33:36;3.70;96.30
42421;DHT22;28063;48.140;11.588;2023-02-01T01:36:01;3.70;96.50
42421;DHT22;28063;48.140;11.588;2023-02-01T01:38:29;3.80;96.70
42421;DHT22;28063;48.140;11.588;2023-02-01T01:40:54;3.80;96.80
42421;DHT22;28063;48.140;11.588;2023-02-01T01:43:20;3.80;96.90
42421;DHT22;28063;48.140;11.588;2023-02-01T01:45:49;3.80;97.20
42421;DHT22;28063;48.140;11.588;2023-02-01T01:48:18;3.80;97.10
42421;DHT22;28063;48.140;11.588;2023-02-01T01:50:46;3.90;97.30
42421;DHT22;28063;48.140;11.588;2023-02-01T01:53:14;3.80;97.50
42421;DHT22;28063;48.140;11.588;2023-02-01T01:55:42;3.80;97.60
42421;DHT22;28063;48.140;11.588;2023-02-01T01:58:10;3.80;97.90
42421;DHT22;28063;48.140;11.588;2023-02-01T02:00:37;3.80;98.10
42421;DHT22;28063;48.140;11.588;2023-02-01T02:03:05;3.80;98.40
42421;DHT22;28063;48.140;11.588;2023-02-01T02:05:32;3.80;98.60
42421;DHT22;28063;48.140;11.588;2023-02-01T02:07:58;3.70;98.60
42421;DHT22;28063;48.140;11.588;2023-02-01T02:10:26;3.70;98.90
42421;DHT22;28063;48.140;11.588;2023-02-01T02:13:12;3.70;99.20
42421;DHT22;28063;48.140;11.588;2023-02-01T02:15:40;3.60;99.40
42421;DHT22;28063;48.140;11.588;2023-02-01T02:18:09;3.60;99.40
42421;DHT22;28063;48.140;11.588;2023-02-01T02:20:52;3.50;99.60
42421;DHT22;28063;48.140;11.588;2023-02-01T02:23:47;3.50;99.90
42421;DHT22;28063;48.140;11.588;2023-02-01T02:31:46;3.40;99.90
42421;DHT22;28063;48.140;11.588;2023-02-01T02:39:50;3.50;99.90
42421;DHT22;28063;48.140;11.588;2023-02-01T02:45:25;3.60;99.90
42421;DHT22;28063;48.140;11.588;2023-02-01T02:48:14;3.60;99.90
42421;DHT22;28063;48.140;11.588;2023-02-01T02:56:43;3.60;99.90
42421;DHT22;28063;48.140;11.588;2023-02-01T02:59:27;3.60;99.90
42421;DHT22;28063;48.140;11.588;2023-02-01T03:02:12;3.60;99.90
42421;DHT22;28063;48.140;11.588;2023-02-01T03:04:57;3.60;99.90
42421;DHT22;28063;48.140;11.588;2023-02-01T03:10:07;3.70;99.90
42421;DHT22;28063;48.140;11.588;2023-02-01T03:12:36;3.70;99.90
42421;DHT22;28063;48.140;11.588;2023-02-01T03:15:26;3.70;99.90
42421;DHT22;28063;48.140;11.588;2023-02-01T03:17:53;3.70;99.90
42421;DHT22;28063;48.140;11.588;2023-02-01T03:20:20;3.70;99.90
42421;DHT22;28063;48.140;11.588;2023-02-01T03:22:47;3.70;99.90
42421;DHT22;28063;48.140;11.588;2023-02-01T03:25:15;3.80;99.90
42421;DHT22;28063;48.140;11.588;2023-02-01T03:27:51;3.80;99.90
42421;DHT22;28063;48.140;11.588;2023-02-01T03:30:24;3.80;99.90
42421;DHT22;28063;48.140;11.588;2023-02-01T03:32:52;3.80;99.80
42421;DHT22;28063;48.140;11.588;2023-02-01T03:35:28;3.80;99.60
42421;DHT22;28063;48.140;11.588;2023-02-01T03:37:55;3.80;99.50
42421;DHT22;28063;48.140;11.588;2023-02-01T03:40:22;3.90;99.10
42421;DHT22;28063;48.140;11.588;2023-02-01T03:42:49;3.90;98.70
42421;DHT22;28063;48.140;11.588;2023-02-01T03:45:18;3.90;98.90
42421;DHT22;28063;48.140;11.588;2023-02-01T03:47:46;3.90;98.90
42421;DHT22;28063;48.140;11.588;2023-02-01T03:50:14;3.90;98.80
42421;DHT22;28063;48.140;11.588;2023-02-01T03:52:45;3.90;98.80
42421;DHT22;28063;48.140;11.588;2023-02-01T03:55:13;3.90;98.80
42421;DHT22;28063;48.140;11.588;2023-02-01T03:57:41;3.90;98.50
42421;DHT22;28063;48.140;11.588;2023-02-01T04:00:19;4.00;98.20
42421;DHT22;28063;48.140;11.588;2023-02-01T04:02:45;4.00;98.30
42421;DHT22;28063;48.140;11.588;2023-02-01T04:05:10;4.00;98.10
42421;DHT22;28063;48.140;11.588;2023-02-01T04:07:36;4.00;98.20
42421;DHT22;28063;48.140;11.588;2023-02-01T04:10:02;4.00;98.10
42421;DHT22;28063;48.140;11.588;2023-02-01T04:12:28;4.00;98.00
42421;DHT22;28063;48.140;11.588;2023-02-01T04:14:54;4.00;98.00
42421;DHT22;28063;48.140;11.588;2023-02-01T04:17:19;4.00;98.10
42421;DHT22;28063;48.140;11.588;2023-02-01T04:19:45;4.00;98.10
42421;DHT22;28063;48.140;11.588;2023-02-01T04:22:11;4.00;98.10
42421;DHT22;28063;48.140;11.588;2023-02-01T04:24:37;4.00;98.20
42421;DHT22;28063;48.140;11.588;2023-02-01T04:27:03;4.00;98.10
42421;DHT22;28063;48.140;11.588;2023-02-01T04:29:28;3.90;97.90
42421;DHT22;28063;48.140;11.588;2023-02-01T04:31:54;4.00;97.70
42421;DHT22;28063;48.140;11.588;2023-02-01T04:34:20;4.00;97.70
42421;DHT22;28063;48.140;11.588;2023-02-01T04:36:47;4.00;97.60
42421;DHT22;28063;48.140;11.588;2023-02-01T04:39:13;4.00;97.60
42421;DHT22;28063;48.140;11.588;2023-02-01T04:41:38;4.00;97.40
42421;DHT22;28063;48.140;11.588;2023-02-01T04:44:04;4.00;97.60
42421;DHT22;28063;48.140;11.588;2023-02-01T04:46:29;3.90;97.40
42421;DHT22;28063;48.140;11.588;2023-02-01T04:48:55;3.90;97.50
42421;DHT22;28063;48.140;11.588;2023-02-01T04:51:20;3.90;97.50
42421;DHT22;28063;48.140;11.588;2023-02-01T04:53:46;3.90;97.50
42421;DHT22;28063;48.140;11.588;2023-02-01T04:56:12;3.90;97.60
42421;DHT22;28063;48.140;11.588;2023-02-01T04:58:38;3.90;97.30
42421;DHT22;28063;48.140;11.588;2023-02-01T05:01:04;3.90;97.30
42421;DHT22;28063;48.140;11.588;2023-02-01T05:03:30;4.00;97.30
42421;DHT22;28063;48.140;11.588;2023-02-01T05:05:55;4.00;97.20
42421;DHT22;28063;48.140;11.588;2023-02-01T05:08:21;4.00;97.00
42421;DHT22;28063;48.140;11.588;2023-02-01T05:10:47;4.00;97.10
42421;DHT22;28063;48.140;11.588;2023-02-01T05:13:13;4.00;96.90
42421;DHT22;28063;48.140;11.588;2023-02-01T05:15:58;4.00;96.80
42421;DHT22;28063;48.140;11.588;2023-02-01T05:18:23;4.10;96.40
42421;DHT22;28063;48.140;11.588;2023-02-01T05:20:49;4.10;96.50
42421;DHT22;28063;48.140;11.588;2023-02-01T05:23:14;4.00;96.50
42421;DHT22;28063;48.140;11.588;2023-02-01T05:25:40;4.00;96.60
42421;DHT22;28063;48.140;11.588;2023-02-01T05:28:05;4.10;96.40
42421;DHT22;28063;48.140;11.588;2023-02-01T05:30:31;4.00;96.60
42421;DHT22;28063;48.140;11.588;2023-02-01T05:33:10;4.00;96.50
42421;DHT22;28063;48.140;11.588;2023-02-01T05:35:36;4.00;96.50
42421;DHT22;28063;48.140;11.588;2023-02-01T05:38:01;4.00;96.50
42421;DHT22;28063;48.140;11.588;2023-02-01T05:40:27;4.00;96.50
42421;DHT22;28063;48.140;11.588;2023-02-01T05:42:52;4.00;96.40
42421;DHT22;28063;48.140;11.588;2023-02-01T05:45:18;4.00;96.40
42421;DHT22;28063;48.140;11.588;2023-02-01T05:47:43;4.10;96.10
42421;DHT22;28063;48.140;11.588;2023-02-01T05:50:09;4.10;96.10
42421;DHT22;28063;48.140;11.588;2023-02-01T05:52:34;4.10;96.10
42421;DHT22;28063;48.140;11.588;2023-02-01T05:55:00;4.10;96.20
42421;DHT22;28063;48.140;11.588;2023-02-01T05:57:25;4.00;96.30
42421;DHT22;28063;48.140;11.588;2023-02-01T05:59:51;4.00;96.20
42421;DHT22;28063;48.140;11.588;2023-02-01T06:02:17;4.10;96.10
42421;DHT22;28063;48.140;11.588;2023-02-01T06:04:42;4.10;96.20
42421;DHT22;28063;48.140;11.588;2023-02-01T06:07:08;4.10;96.20
42421;DHT22;28063;48.140;11.588;2023-02-01T06:09:35;4.00;96.20
42421;DHT22;28063;48.140;11.588;2023-02-01T06:12:01;4.10;96.20
42421;DHT22;28063;48.140;11.588;2023-02-01T06:14:27;4.10;96.20
42421;DHT22;28063;48.140;11.588;2023-02-01T06:16:56;4.10;96.10
42421;DHT22;28063;48.140;11.588;2023-02-01T06:19:22;4.10;96.10
42421;DHT22;28063;48.140;11.588;2023-02-01T06:21:48;4.10;96.20
42421;DHT22;28063;48.140;11.588;2023-02-01T06:24:23;4.10;96.20
42421;DHT22;28063;48.140;11.588;2023-02-01T06:26:48;4.00;96.30
42421;DHT22;28063;48.140;11.588;2023-02-01T06:29:14;4.10;96.30
42421;DHT22;28063;48.140;11.588;2023-02-01T06:31:40;4.10;96.00
42421;DHT22;28063;48.140;11.588;2023-02-01T06:34:05;4.10;95.90
42421;DHT22;28063;48.140;11.588;2023-02-01T06:36:31;4.10;96.00
42421;DHT22;28063;48.140;11.588;2023-02-01T06:38:56;4.20;95.90
42421;DHT22;28063;48.140;11.588;2023-02-01T06:41:24;4.20;95.90
42421;DHT22;28063;48.140;11.588;2023-02-01T06:43:50;4.20;95.80
42421;DHT22;28063;48.140;11.588;2023-02-01T06:46:15;4.20;95.90
42421;DHT22;28063;48.140;11.588;2023-02-01T06:48:41;4.20;95.90
42421;DHT22;28063;48.140;11.588;2023-02-01T06:51:16;4.20;95.80
42421;DHT22;28063;48.140;11.588;2023-02-01T06:53:43;4.20;95.80
42421;DHT22;28063;48.140;11.588;2023-02-01T06:56:08;4.20;95.90
42421;DHT22;28063;48.140;11.588;2023-02-01T06:58:34;4.10;95.80
42421;DHT22;28063;48.140;11.588;2023-02-01T07:01:06;4.20;95.60
42421;DHT22;28063;48.140;11.588;2023-02-01T07:03:32;4.20;95.60
42421;DHT22;28063;48.140;11.588;2023-02-01T07:05:57;4.20;95.70
42421;DHT22;28063;48.140;11.588;2023-02-01T07:08:27;4.20;95.60
42421;DHT22;28063;48.140;11.588;2023-02-01T07:10:52;4.20;95.70
42421;DHT22;28063;48.140;11.588;2023-02-01T07:13:18;4.30;95.40
42421;DHT22;28063;48.140;11.588;2023-02-01T07:15:44;4.30;95.60
42421;DHT22;28063;48.140;11.588;2023-02-01T07:18:12;4.30;95.50
42421;DHT22;28063;48.140;11.588;2023-02-01T07:20:39;4.30;95.40
42421;DHT22;28063;48.140;11.588;2023-02-01T07:23:05;4.30;95.30
42421;DHT22;28063;48.140;11.588;2023-02-01T07:25:30;4.30;95.30
42421;DHT22;28063;48.140;11.588;2023-02-01T07:27:56;4.40;95.20
42421;DHT22;28063;48.140;11.588;2023-02-01T07:30:22;4.40;95.20
42421;DHT22;28063;48.140;11.588;2023-02-01T07:32:47;4.40;95.00
42421;DHT22;28063;48.140;11.588;2023-02-01T07:35:13;4.40;94.90
42421;DHT22;28063;48.140;11.588;2023-02-01T07:37:48;4.40;94.80
42421;DHT22;28063;48.140;11.588;2023-02-01T07:40:32;4.50;94.50
42421;DHT22;28063;48.140;11.588;2023-02-01T07:43:01;4.40;94.70
42421;DHT22;28063;48.140;11.588;2023-02-01T07:45:26;4.50;94.60
42421;DHT22;28063;48.140;11.588;2023-02-01T07:47:52;4.40;94.70
42421;DHT22;28063;48.140;11.588;2023-02-01T07:50:21;4.50;94.50
42421;DHT22;28063;48.140;11.588;2023-02-01T07:52:46;4.50;94.50
42421;DHT22;28063;48.140;11.588;2023-02-01T07:55:12;4.50;94.40
42421;DHT22;28063;48.140;11.588;2023-02-01T07:57:37;4.60;94.40
42421;DHT22;28063;48.140;11.588;2023-02-01T08:00:03;4.60;94.20
42421;DHT22;28063;48.140;11.588;2023-02-01T08:02:47;4.60;94.10
42421;DHT22;28063;48.140;11.588;2023-02-01T08:05:13;4.60;94.00
42421;DHT22;28063;48.140;11.588;2023-02-01T08:07:38;4.60;93.70
42421;DHT22;28063;48.140;11.588;2023-02-01T08:10:04;4.70;93.40
42421;DHT22;28063;48.140;11.588;2023-02-01T08:12:36;4.80;93.30
42421;DHT22;28063;48.140;11.588;2023-02-01T08:15:02;4.80;93.10
42421;DHT22;28063;48.140;11.588;2023-02-01T08:17:31;4.90;92.90
42421;DHT22;28063;48.140;11.588;2023-02-01T08:19:56;4.90;92.90
42421;DHT22;28063;48.140;11.588;2023-02-01T08:22:22;4.90;92.50
42421;DHT22;28063;48.140;11.588;2023-02-01T08:24:47;5.00;92.40
42421;DHT22;28063;48.140;11.588;2023-02-01T08:27:13;5.00;92.60
42421;DHT22;28063;48.140;11.588;2023-02-01T08:29:39;4.90;92.50
42421;DHT22;28063;48.140;11.588;2023-02-01T08:32:06;5.00;92.10
42421;DHT22;28063;48.140;11.588;2023-02-01T08:34:32;5.00;92.10
42421;DHT22;28063;48.140;11.588;2023-02-01T08:36:58;5.00;92.00
42421;DHT22;28063;48.140;11.588;2023-02-01T08:39:24;5.10;91.80
42421;DHT22;28063;48.140;11.588;2023-02-01T08:41:55;5.10;91.40
42421;DHT22;28063;48.140;11.588;2023-02-01T08:44:39;5.20;91.20
42421;DHT22;28063;48.140;11.588;2023-02-01T08:47:04;5.30;90.90
42421;DHT22;28063;48.140;11.588;2023-02-01T08:49:33;5.40;90.60
42421;DHT22;28063;48.140;11.588;2023-02-01T08:52:01;5.50;90.60
42421;DHT22;28063;48.140;11.588;2023-02-01T08:54:29;5.60;90.50
42421;DHT22;28063;48.140;11.588;2023-02-01T08:56:57;5.60;90.10
42421;DHT22;28063;48.140;11.588;2023-02-01T08:59:22;5.70;89.80
42421;DHT22;28063;48.140;11.588;2023-02-01T09:01:48;5.80;88.90
42421;DHT22;28063;48.140;11.588;2023-02-01T09:04:13;5.80;88.70
42421;DHT22;28063;48.140;11.588;2023-02-01T09:06:40;5.80;88.20
42421;DHT22;28063;48.140;11.588;2023-02-01T09:09:06;5.90;88.00
42421;DHT22;28063;48.140;11.588;2023-02-01T09:11:31;5.90;87.80
42421;DHT22;28063;48.140;11.588;2023-02-01T09:13:57;6.00;86.90
42421;DHT22;28063;48.140;11.588;2023-02-01T09:16:23;6.00;86.30
42421;DHT22;28063;48.140;11.588;2023-02-01T09:18:48;6.00;85.90
42421;DHT22;28063;48.140;11.588;2023-02-01T09:21:26;6.10;86.00
42421;DHT22;28063;48.140;11.588;2023-02-01T09:23:52;6.00;86.30
42421;DHT22;28063;48.140;11.588;2023-02-01T09:26:17;6.10;85.50
42421;DHT22;28063;48.140;11.588;2023-02-01T09:28:43;6.20;84.90
42421;DHT22;28063;48.140;11.588;2023-02-01T09:31:39;6.20;84.70
42421;DHT22;28063;48.140;11.588;2023-02-01T09:34:07;6.30;84.90
42421;DHT22;28063;48.140;11.588;2023-02-01T09:36:33;6.30;84.80
42421;DHT22;28063;48.140;11.588;2023-02-01T09:38:58;6.40;84.60
42421;DHT22;28063;48.140;11.588;2023-02-01T09:43:59;6.50;84.20
42421;DHT22;28063;48.140;11.588;2023-02-01T09:46:32;6.50;83.70
42421;DHT22;28063;48.140;11.588;2023-02-01T09:49:08;6.60;83.50
42421;DHT22;28063;48.140;11.588;2023-02-01T09:51:38;6.60;83.40
42421;DHT22;28063;48.140;11.588;2023-02-01T09:54:13;6.70;83.20
42421;DHT22;28063;48.140;11.588;2023-02-01T09:59:35;6.80;83.20
42421;DHT22;28063;48.140;11.588;2023-02-01T10:02:04;6.80;83.40
42421;DHT22;28063;48.140;11.588;2023-02-01T10:04:30;6.80;82.20
42421;DHT22;28063;48.140;11.588;2023-02-01T10:07:11;6.70;82.60
42421;DHT22;28063;48.140;11.588;2023-02-01T10:09:54;6.70;82.80
42421;DHT22;28063;48.140;11.588;2023-02-01T10:18:02;6.70;82.70
42421;DHT22;28063;48.140;11.588;2023-02-01T10:28:18;6.70;82.30
42421;DHT22;28063;48.140;11.588;2023-02-01T10:30:47;6.70;82.20
42421;DHT22;28063;48.140;11.588;2023-02-01T10:33:15;6.70;82.50
42421;DHT22;28063;48.140;11.588;2023-02-01T10:35:41;6.70;82.80
42421;DHT22;28063;48.140;11.588;2023-02-01T10:38:16;6.70;82.50
42421;DHT22;28063;48.140;11.588;2023-02-01T10:40:46;6.70;82.10
42421;DHT22;28063;48.140;11.588;2023-02-01T10:43:11;6.70;82.60
42421;DHT22;28063;48.140;11.588;2023-02-01T10:45:37;6.60;82.70
42421;DHT22;28063;48.140;11.588;2023-02-01T10:48:04;6.70;82.60
42421;DHT22;28063;48.140;11.588;2023-02-01T10:53:17;6.70;82.40
42421;DHT22;28063;48.140;11.588;2023-02-01T10:55:53;6.70;83.30
42421;DHT22;28063;48.140;11.588;2023-02-01T10:58:29;6.70;83.30
42421;DHT22;28063;48.140;11.588;2023-02-01T11:06:27;6.70;83.50
42421;DHT22;28063;48.140;11.588;2023-02-01T11:09:39;6.70;82.60
42421;DHT22;28063;48.140;11.588;2023-02-01T11:14:14;6.60;83.80
42421;DHT22;28063;48.140;11.588;2023-02-01T11:16:40;6.50;84.00
42421;DHT22;28063;48.140;11.588;2023-02-01T11:19:13;6.60;83.90
42421;DHT22;28063;48.140;11.588;2023-02-01T11:21:39;6.60;83.20
42421;DHT22;28063;48.140;11.588;2023-02-01T11:24:06;6.60;84.00
42421;DHT22;28063;48.140;11.588;2023-02-01T11:26:39;6.60;83.50
42421;DHT22;28063;48.140;11.588;2023-02-01T11:29:09;6.70;83.70
42421;DHT22;28063;48.140;11.588;2023-02-01T11:31:36;6.60;84.00
42421;DHT22;28063;48.140;11.588;2023-02-01T11:34:13;6.60;84.20
42421;DHT22;28063;48.140;11.588;2023-02-01T11:36:40;6.60;84.20
42421;DHT22;28063;48.140;11.588;2023-02-01T11:41:34;6.30;84.90
42421;DHT22;28063;48.140;11.588;2023-02-01T11:44:15;6.30;85.20
42421;DHT22;28063;48.140;11.588;2023-02-01T11:46:44;6.30;85.40
42421;DHT22;28063;48.140;11.588;2023-02-01T11:49:15;6.20;84.90
42421;DHT22;28063;48.140;11.588;2023-02-01T11:51:52;6.20;84.70
42421;DHT22;28063;48.140;11.588;2023-02-01T11:56:57;6.10;85.70
42421;DHT22;28063;48.140;11.588;2023-02-01T12:04:40;6.10;85.30
42421;DHT22;28063;48.140;11.588;2023-02-01T12:07:18;6.20;85.60
42421;DHT22;28063;48.140;11.588;2023-02-01T12:17:27;6.40;84.70
42421;DHT22;28063;48.140;11.588;2023-02-01T12:20:06;6.40;84.50
42421;DHT22;28063;48.140;11.588;2023-02-01T12:41:31;5.70;86.50
42421;DHT22;28063;48.140;11.588;2023-02-01T12:44:01;5.70;86.50
42421;DHT22;28063;48.140;11.588;2023-02-01T12:46:37;5.60;86.60
42421;DHT22;28063;48.140;11.588;2023-02-01T12:49:05;5.60;86.90
42421;DHT22;28063;48.140;11.588;2023-02-01T12:51:36;5.50;88.00
42421;DHT22;28063;48.140;11.588;2023-02-01T12:54:49;5.50;87.30
42421;DHT22;28063;48.140;11.588;2023-02-01T12:56:49;5.40;87.70
42421;DHT22;28063;48.140;11.588;2023-02-01T12:59:27;5.40;87.80
42421;DHT22;28063;48.140;11.588;2023-02-01T13:05:01;5.50;87.00
42421;DHT22;28063;48.140;11.588;2023-02-01T13:08:14;5.60;85.60
42421;DHT22;28063;48.140;11.588;2023-02-01T13:12:49;5.60;85.10
42421;DHT22;28063;48.140;11.588;2023-02-01T13:15:28;5.60;85.20
42421;DHT22;28063;48.140;11.588;2023-02-01T13:17:57;5.70;84.90
42421;DHT22;28063;48.140;11.588;2023-02-01T13:22:57;5.80;84.50
42421;DHT22;28063;48.140;11.588;2023-02-01T13:27:55;5.90;84.60
42421;DHT22;28063;48.140;11.588;2023-02-01T13:30:23;5.90;84.90
42421;DHT22;28063;48.140;11.588;2023-02-01T13:37:56;5.90;85.50
42421;DHT22;28063;48.140;11.588;2023-02-01T13:43:01;5.80;86.60
42421;DHT22;28063;48.140;11.588;2023-02-01T13:45:29;5.90;86.50
42421;DHT22;28063;48.140;11.588;2023-02-01T13:47:57;5.90;87.10
42421;DHT22;28063;48.140;11.588;2023-02-01T13:50:30;5.80;87.50
42421;DHT22;28063;48.140;11.588;2023-02-01T13:53:13;5.80;87.90
42421;DHT22;28063;48.140;11.588;2023-02-01T13:55:43;5.70;88.90
42421;DHT22;28063;48.140;11.588;2023-02-01T13:58:28;5.60;88.90
42421;DHT22;28063;48.140;11.588;2023-02-01T14:01:31;5.60;89.50
42421;DHT22;28063;48.140;11.588;2023-02-01T14:03:43;5.60;89.40
42421;DHT22;28063;48.140;11.588;2023-02-01T14:14:37;5.50;90.00
42421;DHT22;28063;48.140;11.588;2023-02-01T14:19:28;5.40;90.30
42421;DHT22;28063;48.140;11.588;2023-02-01T14:21:55;5.40;90.20
42421;DHT22;28063;48.140;11.588;2023-02-01T14:24:27;5.50;90.00
42421;DHT22;28063;48.140;11.588;2023-02-01T14:26:54;5.40;90.10
42421;DHT22;28063;48.140;11.588;2023-02-01T14:34:53;5.50;88.90
42421;DHT22;28063;48.140;11.588;2023-02-01T14:40:33;5.40;88.70
42421;DHT22;28063;48.140;11.588;2023-02-01T14:42:49;5.40;88.40
42421;DHT22;28063;48.140;11.588;2023-02-01T14:50:18;5.50;87.80
42421;DHT22;28063;48.140;11.588;2023-02-01T14:52:49;5.40;87.30
42421;DHT22;28063;48.140;11.588;2023-02-01T14:57:42;5.40;87.10
42421;DHT22;28063;48.140;11.588;2023-02-01T15:00:30;5.40;87.80
42421;DHT22;28063;48.140;11.588;2023-02-01T15:02:55;5.40;87.20
42421;DHT22;28063;48.140;11.588;2023-02-01T15:07:47;5.40;86.90
42421;DHT22;28063;48.140;11.588;2023-02-01T15:10:12;5.40;86.80
42421;DHT22;28063;48.140;11.588;2023-02-01T15:12:40;5.30;87.40
42421;DHT22;28063;48.140;11.588;2023-02-01T15:17:34;5.40;87.90
42421;DHT22;28063;48.140;11.588;2023-02-01T15:20:01;5.40;87.20
42421;DHT22;28063;48.140;11.588;2023-02-01T15:22:28;5.30;87.60
42421;DHT22;28063;48.140;11.588;2023-02-01T15:24:54;5.30;88.10
42421;DHT22;28063;48.140;11.588;2023-02-01T15:27:21;5.30;88.30
42421;DHT22;28063;48.140;11.588;2023-02-01T15:29:46;5.30;88.60
42421;DHT22;28063;48.140;11.588;2023-02-01T15:32:28;5.20;88.90
42421;DHT22;28063;48.140;11.588;2023-02-01T15:34:55;5.20;89.30
42421;DHT22;28063;48.140;11.588;2023-02-01T15:37:20;5.10;89.70
42421;DHT22;28063;48.140;11.588;2023-02-01T15:42:28;5.00;90.20
42421;DHT22;28063;48.140;11.588;2023-02-01T15:44:53;5.00;90.40
42421;DHT22;28063;48.140;11.588;2023-02-01T15:47:20;4.90;90.70
42421;DHT22;28063;48.140;11.588;2023-02-01T15:49:52;4.90;90.70
42421;DHT22;28063;48.140;11.588;2023-02-01T15:52:27;4.80;91.10
42421;DHT22;28063;48.140;11.588;2023-02-01T15:54:56;4.80;91.20
42421;DHT22;28063;48.140;11.588;2023-02-01T15:57:24;4.80;91.30
42421;DHT22;28063;48.140;11.588;2023-02-01T15:59:55;4.80;91.20
42421;DHT22;28063;48.140;11.588;2023-02-01T16:02:33;4.80;91.60
42421;DHT22;28063;48.140;11.588;2023-02-01T16:04:59;4.80;91.70
42421;DHT22;28063;48.140;11.588;2023-02-01T16:07:27;4.70;91.70
42421;DHT22;28063;48.140;11.588;2023-02-01T16:09:55;4.70;91.80
42421;DHT22;28063;48.140;11.588;2023-02-01T16:14:49;4.60;92.10
42421;DHT22;28063;48.140;11.588;2023-02-01T16:17:15;4.60;92.00
42421;DHT22;28063;48.140;11.588;2023-02-01T16:19:43;4.60;91.60
42421;DHT22;28063;48.140;11.588;2023-02-01T16:22:09;4.50;91.80
42421;DHT22;28063;48.140;11.588;2023-02-01T16:24:35;4.60;91.20
42421;DHT22;28063;48.140;11.588;2023-02-01T16:27:00;4.60;91.20
42421;DHT22;28063;48.140;11.588;2023-02-01T16:29:28;4.60;91.20
42421;DHT22;28063;48.140;11.588;2023-02-01T16:31:53;4.60;91.10
42421;DHT22;28063;48.140;11.588;2023-02-01T16:34:19;4.50;91.30
42421;DHT22;28063;48.140;11.588;2023-02-01T16:36:48;4.50;91.10
42421;DHT22;28063;48.140;11.588;2023-02-01T16:39:18;4.60;90.80
42421;DHT22;28063;48.140;11.588;2023-02-01T16:41:43;4.60;90.80
42421;DHT22;28063;48.140;11.588;2023-02-01T16:44:10;4.60;90.70
42421;DHT22;28063;48.140;11.588;2023-02-01T16:46:39;4.60;90.60
42421;DHT22;28063;48.140;11.588;2023-02-01T16:49:05;4.60;90.60
42421;DHT22;28063;48.140;11.588;2023-02-01T16:51:41;4.60;90.50
42421;DHT22;28063;48.140;11.588;2023-02-01T16:54:07;4.60;90.60
42421;DHT22;28063;48.140;11.588;2023-02-01T16:56:33;4.60;90.50
42421;DHT22;28063;48.140;11.588;2023-02-01T16:58:59;4.60;90.50
42421;DHT22;28063;48.140;11.588;2023-02-01T17:01:24;4.70;90.40
42421;DHT22;28063;48.140;11.588;2023-02-01T17:03:50;4.80;90.10
42421;DHT22;28063;48.140;11.588;2023-02-01T17:06:17;4.80;89.90
42421;DHT22;28063;48.140;11.588;2023-02-01T17:08:47;4.80;89.50
42421;DHT22;28063;48.140;11.588;2023-02-01T17:11:15;4.80;89.40
42421;DHT22;28063;48.140;11.588;2023-02-01T17:13:41;4.80;88.90
42421;DHT22;28063;48.140;11.588;2023-02-01T17:18:51;4.80;88.90
42421;DHT22;28063;48.140;11.588;2023-02-01T17:21:18;4.80;88.80
42421;DHT22;28063;48.140;11.588;2023-02-01T17:23:44;4.80;88.40
42421;DHT22;28063;48.140;11.588;2023-02-01T17:26:14;4.80;87.40
42421;DHT22;28063;48.140;11.588;2023-02-01T17:28:39;4.90;87.10
42421;DHT22;28063;48.140;11.588;2023-02-01T17:31:06;4.90;87.10
42421;DHT22;28063;48.140;11.588;2023-02-01T17:33:33;4.90;86.90
42421;DHT22;28063;48.140;11.588;2023-02-01T17:36:00;4.90;86.50
42421;DHT22;28063;48.140;11.588;2023-02-01T17:38:25;4.90;86.60
42421;DHT22;28063;48.140;11.588;2023-02-01T17:40:58;4.90;86.40
42421;DHT22;28063;48.140;11.588;2023-02-01T17:43:24;5.00;86.30
42421;DHT22;28063;48.140;11.588;2023-02-01T17:48:17;5.00;85.80
42421;DHT22;28063;48.140;11.588;2023-02-01T17:50:43;5.00;85.50
42421;DHT22;28063;48.140;11.588;2023-02-01T17:53:09;5.00;85.30
42421;DHT22;28063;48.140;11.588;2023-02-01T17:55:43;5.00;85.60
42421;DHT22;28063;48.140;11.588;2023-02-01T17:58:13;5.00;85.50
42421;DHT22;28063;48.140;11.588;2023-02-01T18:00:39;5.00;84.90
42421;DHT22;28063;48.140;11.588;2023-02-01T18:03:05;5.00;84.80
42421;DHT22;28063;48.140;11.588;2023-02-01T18:08:02;5.00;84.70
42421;DHT22;28063;48.140;11.588;2023-02-01T18:10:28;5.00;84.40